sensor_id;sensor_type;location;lat;lon;timestamp;P1;durP1;ratioP1;P2;durP2;ratioP2
45065;SDS011;30830;53.704;10.004;2023-04-25T00:01:38;16.05;;;4.25;;
45065;SDS011;30830;53.704;10.004;2023-04-25T00:04:03;11.48;;;3.15;;
45065;SDS011;30830;53.704;10.004;2023-04-25T00:06:31;10.23;;;3.95;;
45065;SDS011;30830;53.704;10.004;2023-04-25T00:08:57;10.07;;;4.55;;
45065;SDS011;30830;53.704;10.004;2023-04-25T00:11:23;11.55;;;4.22;;
45065;SDS011;30830;53.704;10.004;2023-04-25T00:13:49;12.40;;;3.58;;
45065;SDS011;30830;53.704;10.004;2023-04-25T00:16:17;12.90;;;3.97;;
45065;SDS011;30830;53.704;10.004;2023-04-25T00:18:43;13.07;;;3.90;;
45065;SDS011;30830;53.704;10.004;2023-04-25T00:21:16;17.02;;;3.45;;
45065;SDS011;30830;53.704;10.004;2023-04-25T00:23:48;17.63;;;4.10;;
45065;SDS011;30830;53.704;10.004;2023-04-25T00:26:14;17.83;;;4.55;;
45065;SDS011;30830;53.704;10.004;2023-04-25T00:28:39;18.67;;;5.63;;
45065;SDS011;30830;53.704;10.004;2023-04-25T00:31:05;13.68;;;4.45;;
45065;SDS011;30830;53.704;10.004;2023-04-25T00:33:31;16.88;;;4.43;;
45065;SDS011;30830;53.704;10.004;2023-04-25T00:35:57;16.02;;;3.92;;
45065;SDS011;30830;53.704;10.004;2023-04-25T00:38:22;24.88;;;3.97;;
45065;SDS011;30830;53.704;10.004;2023-04-25T00:40:48;15.23;;;4.65;;
45065;SDS011;30830;53.704;10.004;2023-04-25T00:43:13;13.38;;;3.58;;
45065;SDS011;30830;53.704;10.004;2023-04-25T00:45:39;13.20;;;3.67;;
45065;SDS011;30830;53.704;10.004;2023-04-25T00:48:05;12.55;;;3.28;;
45065;SDS011;30830;53.704;10.004;2023-04-25T00:50:32;18.80;;;4.22;;
45065;SDS011;30830;53.704;10.004;2023-04-25T00:52:58;9.65;;;3.38;;
45065;SDS011;30830;53.704;10.004;2023-04-25T00:55:25;12.73;;;4.10;;
45065;SDS011;30830;53.704;10.004;2023-04-25T00:57:50;9.63;;;3.30;;
45065;SDS011;30830;53.704;10.004;2023-04-25T01:00:16;10.32;;;3.33;;
45065;SDS011;30830;53.704;10.004;2023-04-25T01:02:43;12.77;;;3.35;;
45065;SDS011;30830;53.704;10.004;2023-04-25T01:05:09;15.43;;;4.18;;
45065;SDS011;30830;53.704;10.004;2023-04-25T01:07:35;10.73;;;3.40;;
45065;SDS011;30830;53.704;10.004;2023-04-25T01:10:01;8.85;;;3.60;;
45065;SDS011;30830;53.704;10.004;2023-04-25T01:12:27;12.57;;;3.90;;
45065;SDS011;30830;53.704;10.004;2023-04-25T01:14:53;11.45;;;3.92;;
45065;SDS011;30830;53.704;10.004;2023-04-25T01:17:20;17.35;;;4.65;;
45065;SDS011;30830;53.704;10.004;2023-04-25T01:19:46;10.40;;;3.03;;
45065;SDS011;30830;53.704;10.004;2023-04-25T01:22:13;19.50;;;4.53;;
45065;SDS011;30830;53.704;10.004;2023-04-25T01:24:39;15.90;;;3.67;;
45065;SDS011;30830;53.704;10.004;2023-04-25T01:27:05;16.92;;;4.50;;
45065;SDS011;30830;53.704;10.004;2023-04-25T01:29:31;16.15;;;4.68;;
45065;SDS011;30830;53.704;10.004;2023-04-25T01:31:58;10.73;;;3.42;;
45065;SDS011;30830;53.704;10.004;2023-04-25T01:34:24;14.30;;;4.30;;
45065;SDS011;30830;53.704;10.004;2023-04-25T01:36:50;12.10;;;4.60;;
45065;SDS011;30830;53.704;10.004;2023-04-25T01:39:17;15.13;;;4.63;;
45065;SDS011;30830;53.704;10.004;2023-04-25T01:41:42;20.05;;;5.10;;
45065;SDS011;30830;53.704;10.004;2023-04-25T01:44:08;17.73;;;4.72;;
45065;SDS011;30830;53.704;10.004;2023-04-25T01:46:34;14.57;;;3.17;;
45065;SDS011;30830;53.704;10.004;2023-04-25T01:49:00;15.43;;;3.63;;
45065;SDS011;30830;53.704;10.004;2023-04-25T01:51:26;12.80;;;3.78;;
45065;SDS011;30830;53.704;10.004;2023-04-25T01:53:51;13.57;;;4.93;;
45065;SDS011;30830;53.704;10.004;2023-04-25T01:56:18;13.32;;;3.88;;
45065;SDS011;30830;53.704;10.004;2023-04-25T01:58:43;17.52;;;3.88;;
45065;SDS011;30830;53.704;10.004;2023-04-25T02:01:09;15.05;;;3.70;;
45065;SDS011;30830;53.704;10.004;2023-04-25T02:03:35;14.95;;;4.07;;
45065;SDS011;30830;53.704;10.004;2023-04-25T02:06:01;14.02;;;3.95;;
45065;SDS011;30830;53.704;10.004;2023-04-25T02:08:26;14.88;;;4.43;;
45065;SDS011;30830;53.704;10.004;2023-04-25T02:10:52;13.75;;;3.45;;
45065;SDS011;30830;53.704;10.004;2023-04-25T02:13:18;19.33;;;3.58;;
45065;SDS011;30830;53.704;10.004;2023-04-25T02:15:43;15.13;;;4.22;;
45065;SDS011;30830;53.704;10.004;2023-04-25T02:18:09;13.43;;;3.78;;
45065;SDS011;30830;53.704;10.004;2023-04-25T02:20:36;12.73;;;3.53;;
45065;SDS011;30830;53.704;10.004;2023-04-25T02:23:02;11.93;;;3.97;;
45065;SDS011;30830;53.704;10.004;2023-04-25T02:25:28;16.77;;;3.50;;
45065;SDS011;30830;53.704;10.004;2023-04-25T02:27:53;13.35;;;3.50;;
45065;SDS011;30830;53.704;10.004;2023-04-25T02:30:19;15.35;;;3.10;;
45065;SDS011;30830;53.704;10.004;2023-04-25T02:32:45;12.63;;;3.97;;
45065;SDS011;30830;53.704;10.004;2023-04-25T02:35:11;11.30;;;4.00;;
45065;SDS011;30830;53.704;10.004;2023-04-25T02:37:37;11.77;;;3.75;;
45065;SDS011;30830;53.704;10.004;2023-04-25T02:40:03;15.00;;;3.60;;
45065;SDS011;30830;53.704;10.004;2023-04-25T02:42:30;13.73;;;2.90;;
45065;SDS011;30830;53.704;10.004;2023-04-25T02:44:55;13.55;;;3.85;;
45065;SDS011;30830;53.704;10.004;2023-04-25T02:47:21;15.75;;;3.15;;
45065;SDS011;30830;53.704;10.004;2023-04-25T02:49:46;15.82;;;3.65;;
45065;SDS011;30830;53.704;10.004;2023-04-25T02:52:12;10.93;;;3.42;;
45065;SDS011;30830;53.704;10.004;2023-04-25T02:54:38;13.43;;;3.55;;
45065;SDS011;30830;53.704;10.004;2023-04-25T02:57:05;9.75;;;3.35;;
45065;SDS011;30830;53.704;10.004;2023-04-25T02:59:31;11.55;;;3.35;;
45065;SDS011;30830;53.704;10.004;2023-04-25T03:01:56;10.65;;;3.65;;
45065;SDS011;30830;53.704;10.004;2023-04-25T03:04:22;15.25;;;3.33;;
45065;SDS011;30830;53.704;10.004;2023-04-25T03:06:48;10.75;;;3.22;;
45065;SDS011;30830;53.704;10.004;2023-04-25T03:09:15;12.10;;;3.30;;
45065;SDS011;30830;53.704;10.004;2023-04-25T03:11:40;17.20;;;4.13;;
45065;SDS011;30830;53.704;10.004;2023-04-25T03:14:06;12.20;;;3.63;;
45065;SDS011;30830;53.704;10.004;2023-04-25T03:16:32;6.25;;;3.10;;
45065;SDS011;30830;53.704;10.004;2023-04-25T03:18:58;13.80;;;4.45;;
45065;SDS011;30830;53.704;10.004;2023-04-25T03:21:24;14.70;;;3.42;;
45065;SDS011;30830;53.704;10.004;2023-04-25T03:23:50;15.82;;;4.03;;
45065;SDS011;30830;53.704;10.004;2023-04-25T03:26:15;20.13;;;4.43;;
45065;SDS011;30830;53.704;10.004;2023-04-25T03:28:41;10.70;;;3.83;;
45065;SDS011;30830;53.704;10.004;2023-04-25T03:31:06;14.02;;;3.63;;
45065;SDS011;30830;53.704;10.004;2023-04-25T03:33:32;13.27;;;3.75;;
45065;SDS011;30830;53.704;10.004;2023-04-25T03:35:58;12.98;;;4.03;;
45065;SDS011;30830;53.704;10.004;2023-04-25T03:38:23;15.38;;;4.78;;
45065;SDS011;30830;53.704;10.004;2023-04-25T03:40:49;8.55;;;2.88;;
45065;SDS011;30830;53.704;10.004;2023-04-25T03:43:15;7.68;;;2.60;;
45065;SDS011;30830;53.704;10.004;2023-04-25T03:45:41;12.00;;;3.40;;
45065;SDS011;30830;53.704;10.004;2023-04-25T03:48:07;16.08;;;3.35;;
45065;SDS011;30830;53.704;10.004;2023-04-25T03:50:32;17.27;;;3.72;;
45065;SDS011;30830;53.704;10.004;2023-04-25T03:52:58;12.60;;;3.30;;
45065;SDS011;30830;53.704;10.004;2023-04-25T03:55:23;11.48;;;2.95;;
45065;SDS011;30830;53.704;10.004;2023-04-25T03:57:49;14.73;;;2.90;;
45065;SDS011;30830;53.704;10.004;2023-04-25T04:00:15;11.90;;;3.13;;
45065;SDS011;30830;53.704;10.004;2023-04-25T04:02:40;15.10;;;3.55;;
45065;SDS011;30830;53.704;10.004;2023-04-25T04:05:06;9.30;;;2.97;;
45065;SDS011;30830;53.704;10.004;2023-04-25T04:07:32;15.30;;;3.53;;
45065;SDS011;30830;53.704;10.004;2023-04-25T04:09:58;8.85;;;2.83;;
45065;SDS011;30830;53.704;10.004;2023-04-25T04:12:24;14.85;;;3.05;;
45065;SDS011;30830;53.704;10.004;2023-04-25T04:14:49;12.60;;;2.97;;
45065;SDS011;30830;53.704;10.004;2023-04-25T04:17:15;15.13;;;3.10;;
45065;SDS011;30830;53.704;10.004;2023-04-25T04:19:41;13.55;;;3.40;;
45065;SDS011;30830;53.704;10.004;2023-04-25T04:22:06;10.05;;;2.97;;
45065;SDS011;30830;53.704;10.004;2023-04-25T04:24:32;14.68;;;3.90;;
45065;SDS011;30830;53.704;10.004;2023-04-25T04:26:58;9.93;;;2.78;;
45065;SDS011;30830;53.704;10.004;2023-04-25T04:29:23;14.50;;;3.50;;
45065;SDS011;30830;53.704;10.004;2023-04-25T04:31:50;8.52;;;2.75;;
45065;SDS011;30830;53.704;10.004;2023-04-25T04:34:16;12.43;;;3.85;;
45065;SDS011;30830;53.704;10.004;2023-04-25T04:36:43;9.88;;;3.42;;
45065;SDS011;30830;53.704;10.004;2023-04-25T04:39:11;8.15;;;3.05;;
45065;SDS011;30830;53.704;10.004;2023-04-25T04:41:37;8.10;;;3.28;;
45065;SDS011;30830;53.704;10.004;2023-04-25T04:44:03;9.30;;;2.38;;
45065;SDS011;30830;53.704;10.004;2023-04-25T04:46:28;10.65;;;3.35;;
45065;SDS011;30830;53.704;10.004;2023-04-25T04:48:56;9.10;;;3.00;;
45065;SDS011;30830;53.704;10.004;2023-04-25T04:51:21;7.68;;;2.95;;
45065;SDS011;30830;53.704;10.004;2023-04-25T04:53:47;9.05;;;4.15;;
45065;SDS011;30830;53.704;10.004;2023-04-25T04:56:12;11.63;;;3.47;;
45065;SDS011;30830;53.704;10.004;2023-04-25T04:58:38;6.85;;;2.85;;
45065;SDS011;30830;53.704;10.004;2023-04-25T05:01:03;11.88;;;2.97;;
45065;SDS011;30830;53.704;10.004;2023-04-25T05:03:29;9.10;;;2.80;;
45065;SDS011;30830;53.704;10.004;2023-04-25T05:05:54;12.20;;;3.13;;
45065;SDS011;30830;53.704;10.004;2023-04-25T05:08:20;10.85;;;2.95;;
45065;SDS011;30830;53.704;10.004;2023-04-25T05:10:45;12.95;;;3.63;;
45065;SDS011;30830;53.704;10.004;2023-04-25T05:13:11;8.90;;;3.38;;
45065;SDS011;30830;53.704;10.004;2023-04-25T05:15:37;13.15;;;2.95;;
45065;SDS011;30830;53.704;10.004;2023-04-25T05:18:02;10.73;;;3.05;;
45065;SDS011;30830;53.704;10.004;2023-04-25T05:20:28;6.50;;;2.28;;
45065;SDS011;30830;53.704;10.004;2023-04-25T05:22:53;7.28;;;2.05;;
45065;SDS011;30830;53.704;10.004;2023-04-25T05:25:19;9.02;;;2.63;;
45065;SDS011;30830;53.704;10.004;2023-04-25T05:27:46;10.50;;;2.53;;
45065;SDS011;30830;53.704;10.004;2023-04-25T05:30:12;7.65;;;2.20;;
45065;SDS011;30830;53.704;10.004;2023-04-25T05:32:37;9.60;;;2.17;;
45065;SDS011;30830;53.704;10.004;2023-04-25T05:35:03;7.28;;;1.90;;
45065;SDS011;30830;53.704;10.004;2023-04-25T05:37:31;11.40;;;1.92;;
45065;SDS011;30830;53.704;10.004;2023-04-25T05:39:57;5.93;;;2.22;;
45065;SDS011;30830;53.704;10.004;2023-04-25T05:42:23;6.07;;;1.70;;
45065;SDS011;30830;53.704;10.004;2023-04-25T05:44:48;9.13;;;2.35;;
45065;SDS011;30830;53.704;10.004;2023-04-25T05:47:14;6.97;;;1.65;;
45065;SDS011;30830;53.704;10.004;2023-04-25T05:49:40;8.82;;;2.20;;
45065;SDS011;30830;53.704;10.004;2023-04-25T05:52:05;8.70;;;2.40;;
45065;SDS011;30830;53.704;10.004;2023-04-25T05:54:31;12.57;;;3.08;;
45065;SDS011;30830;53.704;10.004;2023-04-25T05:56:56;10.20;;;2.20;;
45065;SDS011;30830;53.704;10.004;2023-04-25T05:59:22;10.77;;;3.75;;
45065;SDS011;30830;53.704;10.004;2023-04-25T06:01:48;6.93;;;3.20;;
45065;SDS011;30830;53.704;10.004;2023-04-25T06:04:13;11.13;;;3.15;;
45065;SDS011;30830;53.704;10.004;2023-04-25T06:06:39;6.70;;;2.22;;
45065;SDS011;30830;53.704;10.004;2023-04-25T06:09:04;10.13;;;3.22;;
45065;SDS011;30830;53.704;10.004;2023-04-25T06:11:30;13.50;;;2.83;;
45065;SDS011;30830;53.704;10.004;2023-04-25T06:13:55;10.00;;;3.03;;
45065;SDS011;30830;53.704;10.004;2023-04-25T06:16:21;6.97;;;2.47;;
45065;SDS011;30830;53.704;10.004;2023-04-25T06:18:47;9.35;;;2.55;;
45065;SDS011;30830;53.704;10.004;2023-04-25T06:21:12;6.78;;;2.45;;
45065;SDS011;30830;53.704;10.004;2023-04-25T06:23:38;10.77;;;2.53;;
45065;SDS011;30830;53.704;10.004;2023-04-25T06:26:03;15.55;;;3.33;;
45065;SDS011;30830;53.704;10.004;2023-04-25T06:28:29;13.85;;;3.58;;
45065;SDS011;30830;53.704;10.004;2023-04-25T06:30:54;6.78;;;2.83;;
45065;SDS011;30830;53.704;10.004;2023-04-25T06:33:20;10.13;;;2.88;;
45065;SDS011;30830;53.704;10.004;2023-04-25T06:35:46;13.50;;;3.42;;
45065;SDS011;30830;53.704;10.004;2023-04-25T06:38:12;8.30;;;2.90;;
45065;SDS011;30830;53.704;10.004;2023-04-25T06:40:37;8.68;;;3.58;;
45065;SDS011;30830;53.704;10.004;2023-04-25T06:43:03;8.45;;;2.65;;
45065;SDS011;30830;53.704;10.004;2023-04-25T06:45:29;9.23;;;3.22;;
45065;SDS011;30830;53.704;10.004;2023-04-25T06:47:55;9.65;;;2.03;;
45065;SDS011;30830;53.704;10.004;2023-04-25T06:50:20;10.57;;;3.50;;
45065;SDS011;30830;53.704;10.004;2023-04-25T06:52:46;11.98;;;3.22;;
45065;SDS011;30830;53.704;10.004;2023-04-25T06:55:12;10.60;;;2.38;;
45065;SDS011;30830;53.704;10.004;2023-04-25T06:57:37;12.20;;;2.30;;
45065;SDS011;30830;53.704;10.004;2023-04-25T07:00:03;9.38;;;2.80;;
45065;SDS011;30830;53.704;10.004;2023-04-25T07:02:33;13.27;;;2.55;;
45065;SDS011;30830;53.704;10.004;2023-04-25T07:04:59;9.23;;;2.53;;
45065;SDS011;30830;53.704;10.004;2023-04-25T07:07:25;12.25;;;3.35;;
45065;SDS011;30830;53.704;10.004;2023-04-25T07:09:51;5.38;;;2.25;;
45065;SDS011;30830;53.704;10.004;2023-04-25T07:12:17;5.13;;;1.70;;
45065;SDS011;30830;53.704;10.004;2023-04-25T07:14:42;9.38;;;2.30;;
45065;SDS011;30830;53.704;10.004;2023-04-25T07:17:08;5.22;;;1.95;;
45065;SDS011;30830;53.704;10.004;2023-04-25T07:19:33;6.60;;;1.38;;
45065;SDS011;30830;53.704;10.004;2023-04-25T07:21:59;10.48;;;2.05;;
45065;SDS011;30830;53.704;10.004;2023-04-25T07:24:25;3.85;;;1.92;;
45065;SDS011;30830;53.704;10.004;2023-04-25T07:26:51;6.28;;;1.90;;
45065;SDS011;30830;53.704;10.004;2023-04-25T07:29:16;7.97;;;2.13;;
45065;SDS011;30830;53.704;10.004;2023-04-25T07:31:42;5.57;;;1.67;;
45065;SDS011;30830;53.704;10.004;2023-04-25T07:34:07;6.18;;;1.80;;
45065;SDS011;30830;53.704;10.004;2023-04-25T07:36:33;7.90;;;2.05;;
45065;SDS011;30830;53.704;10.004;2023-04-25T07:38:58;4.90;;;1.88;;
45065;SDS011;30830;53.704;10.004;2023-04-25T07:41:24;8.38;;;1.95;;
45065;SDS011;30830;53.704;10.004;2023-04-25T07:43:49;6.85;;;2.08;;
45065;SDS011;30830;53.704;10.004;2023-04-25T07:46:15;7.03;;;2.10;;
45065;SDS011;30830;53.704;10.004;2023-04-25T07:48:40;7.63;;;2.35;;
45065;SDS011;30830;53.704;10.004;2023-04-25T07:51:06;5.93;;;1.63;;
45065;SDS011;30830;53.704;10.004;2023-04-25T07:53:32;5.68;;;1.52;;
45065;SDS011;30830;53.704;10.004;2023-04-25T07:55:59;4.95;;;1.63;;
45065;SDS011;30830;53.704;10.004;2023-04-25T07:58:25;10.32;;;2.28;;
45065;SDS011;30830;53.704;10.004;2023-04-25T08:00:51;6.85;;;1.83;;
45065;SDS011;30830;53.704;10.004;2023-04-25T08:03:16;7.13;;;2.03;;
45065;SDS011;30830;53.704;10.004;2023-04-25T08:05:42;3.47;;;1.20;;
45065;SDS011;30830;53.704;10.004;2023-04-25T08:08:08;11.77;;;2.38;;
45065;SDS011;30830;53.704;10.004;2023-04-25T08:10:33;6.57;;;1.88;;
45065;SDS011;30830;53.704;10.004;2023-04-25T08:12:59;7.88;;;1.70;;
45065;SDS011;30830;53.704;10.004;2023-04-25T08:15:25;4.57;;;1.38;;
45065;SDS011;30830;53.704;10.004;2023-04-25T08:17:51;6.00;;;1.60;;
45065;SDS011;30830;53.704;10.004;2023-04-25T08:20:19;8.48;;;1.63;;
45065;SDS011;30830;53.704;10.004;2023-04-25T08:22:45;7.50;;;1.92;;
45065;SDS011;30830;53.704;10.004;2023-04-25T08:25:10;7.47;;;1.60;;
45065;SDS011;30830;53.704;10.004;2023-04-25T08:27:36;5.47;;;1.50;;
45065;SDS011;30830;53.704;10.004;2023-04-25T08:30:02;7.32;;;1.38;;
45065;SDS011;30830;53.704;10.004;2023-04-25T08:32:28;10.27;;;1.33;;
45065;SDS011;30830;53.704;10.004;2023-04-25T08:34:54;7.18;;;2.05;;
45065;SDS011;30830;53.704;10.004;2023-04-25T08:37:20;5.15;;;1.67;;
45065;SDS011;30830;53.704;10.004;2023-04-25T08:39:46;8.25;;;1.48;;
45065;SDS011;30830;53.704;10.004;2023-04-25T08:42:13;5.60;;;1.65;;
45065;SDS011;30830;53.704;10.004;2023-04-25T08:44:40;6.05;;;1.88;;
45065;SDS011;30830;53.704;10.004;2023-04-25T08:47:06;5.63;;;1.35;;
45065;SDS011;30830;53.704;10.004;2023-04-25T08:49:32;10.43;;;1.73;;
45065;SDS011;30830;53.704;10.004;2023-04-25T08:52:02;7.72;;;1.63;;
45065;SDS011;30830;53.704;10.004;2023-04-25T08:54:30;7.32;;;1.85;;
45065;SDS011;30830;53.704;10.004;2023-04-25T08:56:57;5.28;;;1.75;;
45065;SDS011;30830;53.704;10.004;2023-04-25T08:59:27;9.25;;;1.77;;
45065;SDS011;30830;53.704;10.004;2023-04-25T09:01:53;7.60;;;2.25;;
45065;SDS011;30830;53.704;10.004;2023-04-25T09:04:19;10.07;;;2.35;;
45065;SDS011;30830;53.704;10.004;2023-04-25T09:06:46;7.97;;;1.63;;
45065;SDS011;30830;53.704;10.004;2023-04-25T09:09:12;7.97;;;1.98;;
45065;SDS011;30830;53.704;10.004;2023-04-25T09:11:38;7.25;;;2.00;;
45065;SDS011;30830;53.704;10.004;2023-04-25T09:14:10;5.05;;;1.30;;
45065;SDS011;30830;53.704;10.004;2023-04-25T09:19:23;12.63;;;1.48;;
45065;SDS011;30830;53.704;10.004;2023-04-25T09:21:51;4.53;;;1.77;;
45065;SDS011;30830;53.704;10.004;2023-04-25T09:26:58;5.43;;;1.70;;
45065;SDS011;30830;53.704;10.004;2023-04-25T09:29:33;6.90;;;1.45;;
45065;SDS011;30830;53.704;10.004;2023-04-25T09:32:14;10.38;;;1.85;;
45065;SDS011;30830;53.704;10.004;2023-04-25T09:34:44;4.97;;;0.85;;
45065;SDS011;30830;53.704;10.004;2023-04-25T09:37:21;6.88;;;1.90;;
45065;SDS011;30830;53.704;10.004;2023-04-25T09:39:53;6.22;;;1.75;;
45065;SDS011;30830;53.704;10.004;2023-04-25T09:42:23;6.15;;;1.67;;
45065;SDS011;30830;53.704;10.004;2023-04-25T09:44:51;6.75;;;1.33;;
45065;SDS011;30830;53.704;10.004;2023-04-25T09:47:18;7.60;;;1.90;;
45065;SDS011;30830;53.704;10.004;2023-04-25T09:49:46;6.80;;;1.95;;
45065;SDS011;30830;53.704;10.004;2023-04-25T09:52:15;5.82;;;1.95;;
45065;SDS011;30830;53.704;10.004;2023-04-25T09:54:42;8.68;;;1.50;;
45065;SDS011;30830;53.704;10.004;2023-04-25T09:57:10;8.75;;;1.83;;
45065;SDS011;30830;53.704;10.004;2023-04-25T09:59:44;4.53;;;1.52;;
45065;SDS011;30830;53.704;10.004;2023-04-25T10:02:14;9.27;;;1.50;;
45065;SDS011;30830;53.704;10.004;2023-04-25T10:04:42;5.95;;;1.30;;
45065;SDS011;30830;53.704;10.004;2023-04-25T10:07:11;3.42;;;1.02;;
45065;SDS011;30830;53.704;10.004;2023-04-25T10:09:38;4.45;;;1.08;;
45065;SDS011;30830;53.704;10.004;2023-04-25T10:12:05;2.72;;;1.23;;
45065;SDS011;30830;53.704;10.004;2023-04-25T10:14:32;4.85;;;1.05;;
45065;SDS011;30830;53.704;10.004;2023-04-25T10:16:59;2.45;;;0.98;;
45065;SDS011;30830;53.704;10.004;2023-04-25T10:19:26;5.13;;;1.17;;
45065;SDS011;30830;53.704;10.004;2023-04-25T10:21:54;4.85;;;1.63;;
45065;SDS011;30830;53.704;10.004;2023-04-25T10:24:36;8.52;;;1.65;;
45065;SDS011;30830;53.704;10.004;2023-04-25T10:27:04;5.75;;;1.58;;
45065;SDS011;30830;53.704;10.004;2023-04-25T10:29:31;5.43;;;1.70;;
45065;SDS011;30830;53.704;10.004;2023-04-25T10:31:56;3.92;;;1.15;;
45065;SDS011;30830;53.704;10.004;2023-04-25T10:34:43;6.03;;;1.20;;
45065;SDS011;30830;53.704;10.004;2023-04-25T10:37:11;6.28;;;1.42;;
45065;SDS011;30830;53.704;10.004;2023-04-25T10:39:39;4.63;;;1.60;;
45065;SDS011;30830;53.704;10.004;2023-04-25T10:42:08;3.63;;;1.58;;
45065;SDS011;30830;53.704;10.004;2023-04-25T10:44:34;7.03;;;1.50;;
45065;SDS011;30830;53.704;10.004;2023-04-25T10:47:02;3.70;;;1.23;;
45065;SDS011;30830;53.704;10.004;2023-04-25T10:49:37;3.67;;;1.38;;
45065;SDS011;30830;53.704;10.004;2023-04-25T10:52:13;3.25;;;1.40;;
45065;SDS011;30830;53.704;10.004;2023-04-25T10:54:52;5.50;;;1.00;;
45065;SDS011;30830;53.704;10.004;2023-04-25T10:57:26;6.00;;;1.58;;
45065;SDS011;30830;53.704;10.004;2023-04-25T10:59:54;7.13;;;1.25;;
45065;SDS011;30830;53.704;10.004;2023-04-25T11:02:23;6.05;;;1.10;;
45065;SDS011;30830;53.704;10.004;2023-04-25T11:04:53;10.85;;;1.50;;
45065;SDS011;30830;53.704;10.004;2023-04-25T11:08:05;6.72;;;1.60;;
45065;SDS011;30830;53.704;10.004;2023-04-25T11:10:15;2.75;;;1.17;;
45065;SDS011;30830;53.704;10.004;2023-04-25T11:12:41;4.28;;;1.40;;
45065;SDS011;30830;53.704;10.004;2023-04-25T11:15:07;4.93;;;0.85;;
45065;SDS011;30830;53.704;10.004;2023-04-25T11:17:33;4.93;;;0.95;;
45065;SDS011;30830;53.704;10.004;2023-04-25T11:19:59;3.50;;;1.38;;
45065;SDS011;30830;53.704;10.004;2023-04-25T11:22:26;2.58;;;0.60;;
45065;SDS011;30830;53.704;10.004;2023-04-25T11:24:52;4.68;;;1.05;;
45065;SDS011;30830;53.704;10.004;2023-04-25T11:27:17;2.47;;;1.02;;
45065;SDS011;30830;53.704;10.004;2023-04-25T11:29:43;2.95;;;1.35;;
45065;SDS011;30830;53.704;10.004;2023-04-25T11:32:09;8.50;;;1.20;;
45065;SDS011;30830;53.704;10.004;2023-04-25T11:34:35;3.38;;;0.90;;
45065;SDS011;30830;53.704;10.004;2023-04-25T11:37:01;7.05;;;1.75;;
45065;SDS011;30830;53.704;10.004;2023-04-25T11:39:27;6.40;;;1.52;;
45065;SDS011;30830;53.704;10.004;2023-04-25T11:41:54;7.53;;;1.70;;
45065;SDS011;30830;53.704;10.004;2023-04-25T11:44:20;4.82;;;0.90;;
45065;SDS011;30830;53.704;10.004;2023-04-25T11:46:47;4.32;;;1.55;;
45065;SDS011;30830;53.704;10.004;2023-04-25T11:49:13;3.88;;;0.98;;
45065;SDS011;30830;53.704;10.004;2023-04-25T11:54:12;3.15;;;0.73;;
45065;SDS011;30830;53.704;10.004;2023-04-25T11:56:42;2.80;;;1.08;;
45065;SDS011;30830;53.704;10.004;2023-04-25T11:59:08;3.10;;;1.30;;
45065;SDS011;30830;53.704;10.004;2023-04-25T12:01:35;3.97;;;1.17;;
45065;SDS011;30830;53.704;10.004;2023-04-25T12:04:15;2.40;;;0.65;;
45065;SDS011;30830;53.704;10.004;2023-04-25T12:06:42;5.88;;;1.23;;
45065;SDS011;30830;53.704;10.004;2023-04-25T12:09:09;2.80;;;1.13;;
45065;SDS011;30830;53.704;10.004;2023-04-25T12:11:44;4.50;;;1.33;;
45065;SDS011;30830;53.704;10.004;2023-04-25T12:14:12;3.55;;;1.10;;
45065;SDS011;30830;53.704;10.004;2023-04-25T12:16:45;3.97;;;1.23;;
45065;SDS011;30830;53.704;10.004;2023-04-25T12:19:15;6.65;;;1.40;;
45065;SDS011;30830;53.704;10.004;2023-04-25T12:21:41;3.22;;;1.40;;
45065;SDS011;30830;53.704;10.004;2023-04-25T12:26:49;7.90;;;1.50;;
45065;SDS011;30830;53.704;10.004;2023-04-25T12:31:46;2.50;;;1.05;;
45065;SDS011;30830;53.704;10.004;2023-04-25T12:34:12;3.80;;;1.83;;
45065;SDS011;30830;53.704;10.004;2023-04-25T12:36:38;2.85;;;1.08;;
45065;SDS011;30830;53.704;10.004;2023-04-25T12:39:04;2.75;;;1.00;;
45065;SDS011;30830;53.704;10.004;2023-04-25T12:41:30;7.93;;;2.00;;
45065;SDS011;30830;53.704;10.004;2023-04-25T12:43:55;4.55;;;1.35;;
45065;SDS011;30830;53.704;10.004;2023-04-25T12:46:21;3.90;;;1.45;;
45065;SDS011;30830;53.704;10.004;2023-04-25T12:48:48;7.72;;;1.48;;
45065;SDS011;30830;53.704;10.004;2023-04-25T12:51:13;7.45;;;1.67;;
45065;SDS011;30830;53.704;10.004;2023-04-25T12:53:39;4.38;;;1.52;;
45065;SDS011;30830;53.704;10.004;2023-04-25T12:56:06;2.55;;;1.30;;
45065;SDS011;30830;53.704;10.004;2023-04-25T12:58:32;7.38;;;1.15;;
45065;SDS011;30830;53.704;10.004;2023-04-25T13:00:58;4.55;;;1.15;;
45065;SDS011;30830;53.704;10.004;2023-04-25T13:03:24;3.25;;;1.45;;
45065;SDS011;30830;53.704;10.004;2023-04-25T13:05:50;4.60;;;1.40;;
45065;SDS011;30830;53.704;10.004;2023-04-25T13:08:17;4.07;;;0.85;;
45065;SDS011;30830;53.704;10.004;2023-04-25T13:10:43;6.22;;;1.13;;
45065;SDS011;30830;53.704;10.004;2023-04-25T13:13:08;5.07;;;1.90;;
45065;SDS011;30830;53.704;10.004;2023-04-25T13:15:34;5.28;;;1.40;;
45065;SDS011;30830;53.704;10.004;2023-04-25T13:18:00;6.45;;;1.33;;
45065;SDS011;30830;53.704;10.004;2023-04-25T13:20:25;8.32;;;1.67;;
45065;SDS011;30830;53.704;10.004;2023-04-25T13:22:51;3.90;;;1.48;;
45065;SDS011;30830;53.704;10.004;2023-04-25T13:25:16;8.85;;;2.33;;
45065;SDS011;30830;53.704;10.004;2023-04-25T13:27:42;10.40;;;1.35;;
45065;SDS011;30830;53.704;10.004;2023-04-25T13:30:09;5.15;;;1.13;;
45065;SDS011;30830;53.704;10.004;2023-04-25T13:32:35;12.30;;;2.33;;
45065;SDS011;30830;53.704;10.004;2023-04-25T13:35:02;6.28;;;1.45;;
45065;SDS011;30830;53.704;10.004;2023-04-25T13:37:29;11.25;;;2.65;;
45065;SDS011;30830;53.704;10.004;2023-04-25T13:39:57;8.82;;;1.80;;
45065;SDS011;30830;53.704;10.004;2023-04-25T13:42:23;8.13;;;2.00;;
45065;SDS011;30830;53.704;10.004;2023-04-25T13:44:49;9.85;;;1.88;;
45065;SDS011;30830;53.704;10.004;2023-04-25T13:47:15;4.75;;;1.55;;
45065;SDS011;30830;53.704;10.004;2023-04-25T13:49:40;6.13;;;2.00;;
45065;SDS011;30830;53.704;10.004;2023-04-25T13:52:06;5.22;;;2.05;;
45065;SDS011;30830;53.704;10.004;2023-04-25T13:54:32;7.97;;;1.83;;
45065;SDS011;30830;53.704;10.004;2023-04-25T13:56:58;6.68;;;1.90;;
45065;SDS011;30830;53.704;10.004;2023-04-25T13:59:24;5.10;;;1.58;;
45065;SDS011;30830;53.704;10.004;2023-04-25T14:01:53;4.32;;;1.40;;
45065;SDS011;30830;53.704;10.004;2023-04-25T14:04:18;5.53;;;1.17;;
45065;SDS011;30830;53.704;10.004;2023-04-25T14:06:44;8.00;;;1.45;;
45065;SDS011;30830;53.704;10.004;2023-04-25T14:09:10;6.00;;;1.52;;
45065;SDS011;30830;53.704;10.004;2023-04-25T14:11:37;4.78;;;1.38;;
45065;SDS011;30830;53.704;10.004;2023-04-25T14:14:03;3.58;;;1.08;;
45065;SDS011;30830;53.704;10.004;2023-04-25T14:16:29;5.93;;;1.45;;
45065;SDS011;30830;53.704;10.004;2023-04-25T14:18:55;4.47;;;0.95;;
45065;SDS011;30830;53.704;10.004;2023-04-25T14:21:21;3.42;;;1.58;;
45065;SDS011;30830;53.704;10.004;2023-04-25T14:23:46;2.75;;;1.00;;
45065;SDS011;30830;53.704;10.004;2023-04-25T14:26:12;6.40;;;1.45;;
45065;SDS011;30830;53.704;10.004;2023-04-25T14:28:38;6.18;;;1.80;;
45065;SDS011;30830;53.704;10.004;2023-04-25T14:31:03;9.18;;;1.52;;
45065;SDS011;30830;53.704;10.004;2023-04-25T14:33:29;3.20;;;1.13;;
45065;SDS011;30830;53.704;10.004;2023-04-25T14:35:55;5.32;;;1.30;;
45065;SDS011;30830;53.704;10.004;2023-04-25T14:38:21;8.80;;;1.65;;